createdAt,value
2023-10-10T00:00:57.228Z,96213.69
2023-10-10T00:02:05.852Z,96212.91
2023-10-10T00:03:09.962Z,96216.94
2023-10-10T00:04:12.582Z,96209.84
2023-10-10T00:05:19.570Z,96208.59
2023-10-10T00:06:23.636Z,96197.19
2023-10-10T00:07:28.790Z,96212.63
2023-10-10T00:08:35.461Z,96209.06
2023-10-10T00:09:38.338Z,96211.09
2023-10-10T00:10:50.464Z,96206.78
2023-10-10T00:11:54.781Z,96200.44
2023-10-10T00:12:57.143Z,96206.00
2023-10-10T00:14:07.109Z,96205.25
2023-10-10T00:15:13.728Z,96198.91
2023-10-10T00:16:25.063Z,96208.00
2023-10-10T00:17:35.693Z,96203.72
2023-10-10T00:18:44.566Z,96202.16
2023-10-10T00:19:55.428Z,96206.50
2023-10-10T00:21:08.772Z,96204.94
2023-10-10T00:22:11.056Z,96209.72
2023-10-10T00:23:13.937Z,96212.50
2023-10-10T00:24:21.867Z,96199.09
2023-10-10T00:25:29.735Z,96206.19
2023-10-10T00:26:35.700Z,96210.50
2023-10-10T00:27:40.922Z,96202.66
2023-10-10T00:28:46.428Z,96199.09
2023-10-10T00:29:50.093Z,96201.88
2023-10-10T00:30:53.818Z,96199.09
2023-10-10T00:32:06.734Z,96195.25
2023-10-10T00:33:12.212Z,96204.06
2023-10-10T00:34:14.783Z,96198.78
2023-10-10T00:35:19.316Z,96193.25
2023-10-10T00:36:23.118Z,96192.97
2023-10-10T00:37:30.635Z,96194.50
2023-10-10T00:38:32.739Z,96192.97
2023-10-10T00:39:37.701Z,96188.19
2023-10-10T00:40:40.428Z,96184.34
2023-10-10T00:41:51.895Z,96189.91
2023-10-10T00:42:55.428Z,96185.56
2023-10-10T00:43:58.474Z,96188.34
2023-10-10T00:45:05.435Z,96191.13
2023-10-10T00:46:09.178Z,96181.25
2023-10-10T00:47:14.463Z,96193.13
2023-10-10T00:48:22.341Z,96191.13
2023-10-10T00:49:28.240Z,96186.81
2023-10-10T00:50:35.627Z,96191.63
2023-10-10T00:51:40.260Z,96191.63
2023-10-10T00:52:45.033Z,96184.50
2023-10-10T00:54:09.771Z,96191.63
2023-10-10T00:55:13.461Z,96192.06
2023-10-10T00:56:16.576Z,96193.31
2023-10-10T00:57:21.144Z,96189.28
2023-10-10T00:58:25.685Z,96187.00
2023-10-10T00:59:35.994Z,96187.75
2023-10-10T01:00:45.799Z,96179.16
2023-10-10T01:01:50.319Z,96186.22
2023-10-10T01:02:52.602Z,96183.16
2023-10-10T01:03:55.710Z,96183.16
2023-10-10T01:04:58.023Z,96174.81
2023-10-10T01:06:08.135Z,96178.84
2023-10-10T01:07:10.599Z,96168.97
2023-10-10T01:08:18.246Z,96167.44
2023-10-10T01:09:33.615Z,96174.22
2023-10-10T01:10:44.086Z,96171.44
2023-10-10T01:11:49.632Z,96169.16
2023-10-10T01:12:52.534Z,96168.38
2023-10-10T01:13:58.070Z,96171.16
2023-10-10T01:15:08.209Z,96161.31
2023-10-10T01:16:10.502Z,96170.09
2023-10-10T01:17:14.252Z,96167.31
2023-10-10T01:18:16.729Z,96169.34
2023-10-10T01:19:19.487Z,96160.25
2023-10-10T01:20:35.270Z,96174.13
2023-10-10T01:21:51.543Z,96170.59
2023-10-10T01:22:57.939Z,96169.78
2023-10-10T01:24:07.254Z,96167.50
2023-10-10T01:25:27.785Z,96171.03
2023-10-10T01:26:37.594Z,96162.41
2023-10-10T01:27:40.900Z,96161.66
2023-10-10T01:28:43.753Z,96164.44
2023-10-10T01:29:51.584Z,96171.22
2023-10-10T01:30:59.929Z,96162.88
2023-10-10T01:32:03.914Z,96168.94
2023-10-10T01:33:05.961Z,96166.63
2023-10-10T01:34:10.705Z,96161.06
2023-10-10T01:35:17.893Z,96156.75
2023-10-10T01:36:22.075Z,96155.22
2023-10-10T01:37:29.996Z,96160.75
2023-10-10T01:38:57.680Z,96167.56
2023-10-10T01:40:17.355Z,96173.13
2023-10-10T01:41:23.364Z,96163.25
2023-10-10T01:42:33.434Z,96166.81
2023-10-10T01:43:35.379Z,96158.94
2023-10-10T01:44:38.405Z,96166.03
2023-10-10T01:45:42.860Z,96167.28
2023-10-10T01:46:47.252Z,96162.94
2023-10-10T01:47:58.777Z,96162.19
2023-10-10T01:49:02.808Z,96157.38
2023-10-10T01:50:09.278Z,96161.75
2023-10-10T01:51:12.179Z,96160.19
2023-10-10T01:52:21.836Z,96158.66
2023-10-10T01:53:23.842Z,96164.22
2023-10-10T01:54:36.250Z,96162.66
2023-10-10T01:55:38.297Z,96158.47
2023-10-10T01:56:40.213Z,96155.25
2023-10-10T01:57:43.325Z,96153.72
2023-10-10T01:58:45.413Z,96159.56
2023-10-10T01:59:49.916Z,96150.28
2023-10-10T02:00:52.898Z,96156.16
2023-10-10T02:01:55.871Z,96153.38
2023-10-10T02:03:00.285Z,96156.16
2023-10-10T02:04:06.967Z,96153.38
2023-10-10T02:05:12.996Z,96151.84
2023-10-10T02:06:24.481Z,96155.84
2023-10-10T02:07:33.562Z,96159.41
2023-10-10T02:08:39.641Z,96156.63
2023-10-10T02:09:44.842Z,96159.88
2023-10-10T02:10:50.930Z,96151.53
2023-10-10T02:11:56.181Z,96151.53
2023-10-10T02:13:01.324Z,96161.38
2023-10-10T02:14:03.867Z,96148.75
2023-10-10T02:15:13.055Z,96153.53
2023-10-10T02:16:18.778Z,96151.53
2023-10-10T02:17:23.867Z,96157.09
2023-10-10T02:18:39.320Z,96153.53
2023-10-10T02:19:42.516Z,96152.75
2023-10-10T02:20:54.136Z,96154.03
2023-10-10T02:22:14.022Z,96152.75
2023-10-10T02:23:25.545Z,96156.78
2023-10-10T02:24:40.009Z,96151.25
2023-10-10T02:25:42.328Z,96157.56
2023-10-10T02:26:45.249Z,96145.69
2023-10-10T02:27:55.881Z,96150.44
2023-10-10T02:29:12.762Z,96149.69
2023-10-10T02:30:23.352Z,96146.16
2023-10-10T02:31:29.330Z,96143.84
2023-10-10T02:32:34.627Z,96142.63
2023-10-10T02:33:38.929Z,96137.06
2023-10-10T02:34:44.704Z,96137.06
2023-10-10T02:35:57.786Z,96145.41
2023-10-10T02:37:14.526Z,96141.06
2023-10-10T02:38:18.250Z,96140.31
2023-10-10T02:39:28.928Z,96143.09
2023-10-10T02:40:32.458Z,96142.31
2023-10-10T02:41:39.974Z,96152.16
2023-10-10T02:42:51.459Z,96145.84
2023-10-10T02:44:02.962Z,96139.53
2023-10-10T02:45:07.282Z,96146.63
2023-10-10T02:46:09.436Z,96147.09
2023-10-10T02:47:13.498Z,96145.09
2023-10-10T02:48:22.122Z,96153.88
2023-10-10T02:49:31.131Z,96149.09
2023-10-10T02:50:43.278Z,96147.56
2023-10-10T02:51:49.390Z,96153.88
2023-10-10T02:53:00.820Z,96147.56
2023-10-10T02:54:20.742Z,96157.41
2023-10-10T02:55:34.264Z,96153.13
2023-10-10T02:56:44.526Z,96152.34
2023-10-10T02:57:47.543Z,96157.13
2023-10-10T02:58:55.389Z,96155.59
2023-10-10T03:00:16.965Z,96151.56
2023-10-10T03:01:49.309Z,96148.78
2023-10-10T03:02:54.314Z,96144.50
2023-10-10T03:03:59.759Z,96147.28
2023-10-10T03:05:16.842Z,96144.50
2023-10-10T03:06:29.299Z,96138.19
2023-10-10T03:07:33.448Z,96147.28
2023-10-10T03:08:38.591Z,96150.03
2023-10-10T03:10:03.155Z,96144.50
2023-10-10T03:11:16.086Z,96144.19
2023-10-10T03:12:18.858Z,96141.41
2023-10-10T03:13:37.320Z,96141.41
2023-10-10T03:14:44.507Z,96139.91
2023-10-10T03:15:56.568Z,96142.69
2023-10-10T03:17:06.687Z,96142.69
2023-10-10T03:18:20.862Z,96145.44
2023-10-10T03:19:30.116Z,96148.22
2023-10-10T03:20:49.272Z,96151.75
2023-10-10T03:21:59.766Z,96148.69
2023-10-10T03:23:20.444Z,96154.22
2023-10-10T03:24:51.119Z,96149.16
2023-10-10T03:26:05.478Z,96151.16
2023-10-10T03:27:28.890Z,96153.19
2023-10-10T03:28:33.787Z,96151.63
2023-10-10T03:29:48.157Z,96156.91
2023-10-10T03:30:53.075Z,96152.13
2023-10-10T03:32:10.491Z,96149.81
2023-10-10T03:33:18.374Z,96156.91
2023-10-10T03:34:30.811Z,96156.91
2023-10-10T03:35:52.758Z,96154.13
2023-10-10T03:37:11.289Z,96153.81
2023-10-10T03:38:32.008Z,96154.59
2023-10-10T03:39:44.557Z,96148.28
2023-10-10T03:41:08.546Z,96156.59
2023-10-10T03:42:31.234Z,96155.03
2023-10-10T03:43:51.927Z,96146.72
2023-10-10T03:45:12.834Z,96145.97
2023-10-10T03:46:36.741Z,96150.75
2023-10-10T03:47:57.172Z,96150.44
2023-10-10T03:49:18.745Z,96159.53
2023-10-10T03:50:39.162Z,96158.00
2023-10-10T03:51:59.796Z,96148.91
2023-10-10T03:53:16.694Z,96152.91
2023-10-10T03:54:37.424Z,96151.66
2023-10-10T03:55:57.755Z,96158.47
2023-10-10T03:57:18.284Z,96150.91
2023-10-10T03:58:40.039Z,96154.19
2023-10-10T04:00:00.813Z,96153.38
2023-10-10T04:01:21.527Z,96146.31
2023-10-10T04:02:41.914Z,96157.41
2023-10-10T04:04:02.280Z,96147.53
2023-10-10T04:05:27.680Z,96146.78
2023-10-10T04:06:48.781Z,96157.88
2023-10-10T04:08:09.306Z,96144.00
2023-10-10T04:09:29.638Z,96148.03
2023-10-10T04:10:50.044Z,96150.50
2023-10-10T04:12:10.414Z,96148.94
2023-10-10T04:13:30.717Z,96150.97
2023-10-10T04:14:52.274Z,96140.34
2023-10-10T04:16:11.809Z,96145.09
2023-10-10T04:17:32.668Z,96149.88
2023-10-10T04:18:52.994Z,96151.91
2023-10-10T04:20:13.732Z,96153.91
2023-10-10T04:21:34.517Z,96153.13
2023-10-10T04:22:54.940Z,96165.00
2023-10-10T04:24:16.197Z,96157.16
2023-10-10T04:25:36.692Z,96159.91
2023-10-10T04:26:57.125Z,96153.63
2023-10-10T04:28:17.518Z,96150.84
2023-10-10T04:29:38.248Z,96159.91
2023-10-10T04:31:00.224Z,96165.94
2023-10-10T04:32:20.950Z,96161.63
2023-10-10T04:33:41.379Z,96162.84
2023-10-10T04:35:01.959Z,96156.25
2023-10-10T04:36:24.806Z,96166.28
2023-10-10T04:37:41.547Z,96165.97
2023-10-10T04:39:02.259Z,96159.66
2023-10-10T04:40:23.701Z,96164.44
2023-10-10T04:41:44.124Z,96169.69
2023-10-10T04:43:04.502Z,96161.06
2023-10-10T04:44:25.345Z,96162.31
2023-10-10T04:45:45.940Z,96160.31
2023-10-10T04:47:08.975Z,96158.00
2023-10-10T04:48:29.302Z,96169.56
2023-10-10T04:49:49.621Z,96168.78
2023-10-10T04:51:10.071Z,96172.78
2023-10-10T04:52:30.601Z,96168.47
2023-10-10T04:53:51.164Z,96170.97
2023-10-10T04:55:11.636Z,96174.97
2023-10-10T04:56:32.299Z,96177.72
2023-10-10T04:57:52.718Z,96169.41
2023-10-10T04:59:13.316Z,96172.19
2023-10-10T05:00:34.046Z,96165.13
2023-10-10T05:01:54.699Z,96166.34
2023-10-10T05:03:16.735Z,96169.09
2023-10-10T05:04:39.720Z,96164.81
2023-10-10T05:06:00.238Z,96170.06
2023-10-10T05:07:29.182Z,96164.97
2023-10-10T05:08:49.709Z,96173.78
2023-10-10T05:10:10.095Z,96167.44
2023-10-10T05:11:30.620Z,96159.59
2023-10-10T05:12:50.921Z,96167.63
2023-10-10T05:14:11.362Z,96162.06
2023-10-10T05:15:31.921Z,96164.53
2023-10-10T05:16:52.338Z,96165.28
2023-10-10T05:18:12.858Z,96165.28
2023-10-10T05:19:37.079Z,96165.75
2023-10-10T05:21:05.974Z,96161.16
2023-10-10T05:22:26.709Z,96159.31
2023-10-10T05:23:35.659Z,96159.94
2023-10-10T05:24:44.391Z,96160.38
2023-10-10T05:25:52.111Z,96165.16
2023-10-10T05:26:57.703Z,96157.63
2023-10-10T05:28:00.770Z,96160.84
2023-10-10T05:29:03.038Z,96169.16
2023-10-10T05:30:07.345Z,96162.09
2023-10-10T05:31:11.197Z,96165.63
2023-10-10T05:32:14.241Z,96164.88
2023-10-10T05:33:20.821Z,96171.16
2023-10-10T05:34:26.305Z,96169.16
2023-10-10T05:35:29.417Z,96168.41
2023-10-10T05:36:32.988Z,96167.63
2023-10-10T05:37:38.080Z,96172.41
2023-10-10T05:38:41.315Z,96167.31
2023-10-10T05:39:43.412Z,96168.84
2023-10-10T05:40:48.604Z,96172.84
2023-10-10T05:41:55.514Z,96174.41
2023-10-10T05:42:58.520Z,96169.66
2023-10-10T05:44:03.485Z,96172.84
2023-10-10T05:45:09.785Z,96175.63
2023-10-10T05:46:12.883Z,96177.16
2023-10-10T05:47:17.565Z,96184.69
2023-10-10T05:48:20.973Z,96178.38
2023-10-10T05:49:24.595Z,96179.59
2023-10-10T05:50:28.375Z,96178.38
2023-10-10T05:51:31.036Z,96175.31
2023-10-10T05:52:34.407Z,96169.00
2023-10-10T05:53:36.359Z,96183.63
2023-10-10T05:54:39.365Z,96178.84
2023-10-10T05:55:42.254Z,96182.84
2023-10-10T05:56:47.549Z,96180.09
2023-10-10T05:57:50.559Z,96187.91
2023-10-10T05:58:55.203Z,96185.16
2023-10-10T05:59:59.654Z,96183.94
2023-10-10T06:01:02.027Z,96188.56
2023-10-10T06:02:04.949Z,96188.56
2023-10-10T06:03:07.082Z,96188.09
2023-10-10T06:04:13.010Z,96187.34
2023-10-10T06:05:18.485Z,96196.41
2023-10-10T06:06:22.638Z,96184.56
2023-10-10T06:07:25.133Z,96192.09
2023-10-10T06:08:28.298Z,96185.78
2023-10-10T06:09:35.251Z,96189.63
2023-10-10T06:10:39.215Z,96184.38
2023-10-10T06:11:41.117Z,96185.47
2023-10-10T06:12:44.246Z,96184.25
2023-10-10T06:13:48.040Z,96180.97
2023-10-10T06:14:51.104Z,96188.53
2023-10-10T06:15:53.008Z,96183.47
2023-10-10T06:16:56.002Z,96187.31
2023-10-10T06:17:58.906Z,96190.09
2023-10-10T06:19:02.562Z,96190.41
2023-10-10T06:20:07.513Z,96190.41
2023-10-10T06:21:10.989Z,96191.47
2023-10-10T06:22:16.424Z,96190.06
2023-10-10T06:23:21.950Z,96189.88
2023-10-10T06:24:25.080Z,96196.81
2023-10-10T06:25:30.307Z,96194.94
2023-10-10T06:26:33.380Z,96204.03
2023-10-10T06:27:38.016Z,96197.53
2023-10-10T06:28:46.872Z,96198.63
2023-10-10T06:29:49.983Z,96194.59
2023-10-10T06:30:54.091Z,96194.59
2023-10-10T06:31:57.882Z,96198.91
2023-10-10T06:33:10.337Z,96196.91
2023-10-10T06:34:23.557Z,96196.13
2023-10-10T06:35:30.604Z,96199.41
2023-10-10T06:36:34.036Z,96202.16
2023-10-10T06:37:37.110Z,96203.38
2023-10-10T06:38:42.517Z,96202.63
2023-10-10T06:39:56.170Z,96199.53
2023-10-10T06:41:00.384Z,96209.13
2023-10-10T06:42:05.215Z,96200.50
2023-10-10T06:43:16.495Z,96197.41
2023-10-10T06:44:33.468Z,96205.28
2023-10-10T06:45:36.330Z,96205.72
2023-10-10T06:46:41.438Z,96197.41
2023-10-10T06:47:46.100Z,96202.97
2023-10-10T06:48:52.189Z,96199.44
2023-10-10T06:50:00.120Z,96202.97
2023-10-10T06:51:03.265Z,96202.97
2023-10-10T06:52:07.008Z,96207.75
2023-10-10T06:53:23.581Z,96199.44
2023-10-10T06:54:29.104Z,96197.41
2023-10-10T06:55:38.447Z,96205.72
2023-10-10T06:56:46.559Z,96202.19
2023-10-10T06:57:59.012Z,96191.88
2023-10-10T06:59:02.734Z,96194.19
2023-10-10T07:00:22.302Z,96203.25
2023-10-10T07:01:25.879Z,96197.72
2023-10-10T07:02:38.981Z,96192.16
2023-10-10T07:03:48.263Z,96189.41
2023-10-10T07:04:53.982Z,96202.00
2023-10-10T07:05:56.998Z,96202.31
2023-10-10T07:07:02.117Z,96200.31
2023-10-10T07:08:25.994Z,96197.06
2023-10-10T07:09:29.204Z,96198.63
2023-10-10T07:10:35.069Z,96200.16
2023-10-10T07:11:40.459Z,96207.22
2023-10-10T07:12:42.588Z,96194.91
2023-10-10T07:13:45.880Z,96200.75
2023-10-10T07:14:48.613Z,96202.94
2023-10-10T07:15:53.791Z,96205.41
2023-10-10T07:16:58.054Z,96201.69
2023-10-10T07:18:09.874Z,96206.00
2023-10-10T07:19:24.914Z,96204.28
2023-10-10T07:20:45.412Z,96209.03
2023-10-10T07:21:49.077Z,96202.41
2023-10-10T07:22:55.217Z,96208.81
2023-10-10T07:24:07.262Z,96211.75
2023-10-10T07:25:18.733Z,96201.53
2023-10-10T07:26:22.395Z,96205.19
2023-10-10T07:27:31.355Z,96215.97
2023-10-10T07:28:49.165Z,96211.63
2023-10-10T07:30:00.387Z,96213.59
2023-10-10T07:31:03.792Z,96213.53
2023-10-10T07:32:17.588Z,96216.41
2023-10-10T07:33:24.443Z,96214.81
2023-10-10T07:34:36.192Z,96220.00
2023-10-10T07:35:45.557Z,96226.16
2023-10-10T07:36:51.766Z,96225.81
2023-10-10T07:37:59.813Z,96225.59
2023-10-10T07:39:21.534Z,96225.72
2023-10-10T07:40:32.369Z,96230.63
2023-10-10T07:41:37.241Z,96228.59
2023-10-10T07:42:40.308Z,96232.16
2023-10-10T07:43:43.348Z,96221.63
2023-10-10T07:44:46.328Z,96228.72
2023-10-10T07:45:53.157Z,96227.00
2023-10-10T07:47:28.602Z,96232.06
2023-10-10T07:48:40.499Z,96220.81
2023-10-10T07:49:51.292Z,96226.47
2023-10-10T07:51:07.377Z,96231.09
2023-10-10T07:52:17.749Z,96228.59
2023-10-10T07:53:21.270Z,96228.59
2023-10-10T07:54:31.196Z,96226.09
2023-10-10T07:55:51.895Z,96230.41
2023-10-10T07:56:56.327Z,96217.94
2023-10-10T07:58:00.837Z,96230.28
2023-10-10T07:59:07.018Z,96226.75
2023-10-10T08:00:18.521Z,96222.75
2023-10-10T08:01:20.782Z,96225.81
2023-10-10T08:02:28.761Z,96227.34
2023-10-10T08:03:32.880Z,96221.69
2023-10-10T08:04:38.831Z,96221.53
2023-10-10T08:05:43.737Z,96225.06
2023-10-10T08:06:47.088Z,96233.41
2023-10-10T08:07:49.434Z,96225.81
2023-10-10T08:09:15.704Z,96221.03
2023-10-10T08:10:31.030Z,96224.56
2023-10-10T08:11:38.194Z,96224.56
2023-10-10T08:12:40.784Z,96226.13
2023-10-10T08:13:49.935Z,96228.44
2023-10-10T08:15:00.268Z,96230.53
2023-10-10T08:16:04.501Z,96227.75
2023-10-10T08:17:19.712Z,96230.53
2023-10-10T08:18:41.725Z,96230.53
2023-10-10T08:19:45.004Z,96231.28
2023-10-10T08:21:01.999Z,96236.09
2023-10-10T08:22:13.785Z,96236.84
2023-10-10T08:23:16.267Z,96230.53
2023-10-10T08:24:21.339Z,96225.72
2023-10-10T08:25:24.878Z,96237.63
2023-10-10T08:26:30.484Z,96228.03
2023-10-10T08:27:34.504Z,96231.59
2023-10-10T08:28:37.473Z,96232.63
2023-10-10T08:29:39.792Z,96235.41
2023-10-10T08:30:42.772Z,96234.19
2023-10-10T08:31:44.910Z,96228.63
2023-10-10T08:32:49.831Z,96224.28
2023-10-10T08:33:52.492Z,96228.63
2023-10-10T08:34:57.791Z,96233.41
2023-10-10T08:36:00.298Z,96230.63
2023-10-10T08:37:05.225Z,96223.06
2023-10-10T08:38:07.588Z,96235.72
2023-10-10T08:39:26.311Z,96240.00
2023-10-10T08:40:34.987Z,96233.97
2023-10-10T08:41:40.212Z,96233.97
2023-10-10T08:42:44.392Z,96230.44
2023-10-10T08:43:54.432Z,96233.22
2023-10-10T08:44:59.012Z,96233.22
2023-10-10T08:46:05.384Z,96228.88
2023-10-10T08:47:08.825Z,96237.22
2023-10-10T08:48:14.910Z,96234.44
2023-10-10T08:49:17.586Z,96234.75
2023-10-10T08:50:20.694Z,96231.66
2023-10-10T08:51:22.744Z,96237.22
2023-10-10T08:52:28.630Z,96234.44
2023-10-10T08:53:36.540Z,96232.94
2023-10-10T08:54:42.163Z,96235.72
2023-10-10T08:55:57.530Z,96237.22
2023-10-10T08:57:04.334Z,96242.03
2023-10-10T08:58:09.455Z,96238.50
2023-10-10T08:59:13.277Z,96242.03
2023-10-10T09:00:19.052Z,96233.69
2023-10-10T09:01:21.431Z,96240.00
2023-10-10T09:02:24.506Z,96235.72
2023-10-10T09:03:27.770Z,96235.72
2023-10-10T09:04:31.807Z,96241.28
2023-10-10T09:05:34.135Z,96234.19
2023-10-10T09:06:45.604Z,96239.75
2023-10-10T09:07:47.590Z,96234.19
2023-10-10T09:08:52.088Z,96232.94
2023-10-10T09:10:06.115Z,96228.63
2023-10-10T09:11:11.075Z,96230.91
2023-10-10T09:12:16.527Z,96227.66
2023-10-10T09:13:20.051Z,96233.97
2023-10-10T09:14:27.517Z,96233.50
2023-10-10T09:15:31.659Z,96229.47
2023-10-10T09:16:42.554Z,96232.25
2023-10-10T09:17:46.925Z,96234.09
2023-10-10T09:19:09.756Z,96232.06
2023-10-10T09:20:19.371Z,96237.13
2023-10-10T09:21:23.065Z,96233.13
2023-10-10T09:22:35.518Z,96238.22
2023-10-10T09:23:43.794Z,96238.97
2023-10-10T09:24:47.090Z,96235.69
2023-10-10T09:25:59.042Z,96234.47
2023-10-10T09:27:22.792Z,96245.88
2023-10-10T09:28:31.829Z,96241.09
2023-10-10T09:29:43.378Z,96241.38
2023-10-10T09:30:51.662Z,96240.09
2023-10-10T09:32:00.877Z,96239.34
2023-10-10T09:33:14.724Z,96243.19
2023-10-10T09:34:23.811Z,96237.63
2023-10-10T09:35:29.669Z,96243.19
2023-10-10T09:36:39.291Z,96247.50
2023-10-10T09:37:43.362Z,96246.25
2023-10-10T09:38:48.311Z,96251.81
2023-10-10T09:39:57.063Z,96241.44
2023-10-10T09:41:15.724Z,96242.25
2023-10-10T09:42:45.258Z,96246.25
2023-10-10T09:44:20.672Z,96236.69
2023-10-10T09:45:37.174Z,96249.31
2023-10-10T09:47:04.301Z,96250.84
2023-10-10T09:48:18.346Z,96250.84
2023-10-10T09:49:30.835Z,96243.75
2023-10-10T09:50:38.737Z,96251.63
2023-10-10T09:52:00.111Z,96240.00
2023-10-10T09:53:07.398Z,96247.59
2023-10-10T09:54:17.246Z,96248.34
2023-10-10T09:55:35.090Z,96243.84
2023-10-10T09:56:42.237Z,96238.28
2023-10-10T09:57:59.518Z,96244.63
2023-10-10T09:59:04.299Z,96242.59
2023-10-10T10:00:23.753Z,96239.06
2023-10-10T10:01:28.459Z,96244.13
2023-10-10T10:02:41.705Z,96244.91
2023-10-10T10:04:01.163Z,96242.41
2023-10-10T10:05:15.054Z,96245.47
2023-10-10T10:06:49.197Z,96242.69
2023-10-10T10:08:07.500Z,96241.47
2023-10-10T10:09:33.478Z,96252.63
2023-10-10T10:10:49.774Z,96246.06
2023-10-10T10:12:20.853Z,96249.63
2023-10-10T10:13:38.539Z,96242.81
2023-10-10T10:14:48.887Z,96245.09
2023-10-10T10:16:09.672Z,96243.88
2023-10-10T10:17:20.124Z,96244.16
2023-10-10T10:18:30.599Z,96244.16
2023-10-10T10:19:35.866Z,96238.88
2023-10-10T10:20:48.917Z,96249.22
2023-10-10T10:22:08.001Z,96245.22
2023-10-10T10:23:18.157Z,96242.41
2023-10-10T10:24:30.623Z,96243.94
2023-10-10T10:25:37.357Z,96250.31
2023-10-10T10:26:44.685Z,96243.47
2023-10-10T10:27:50.608Z,96240.69
2023-10-10T10:28:58.627Z,96239.41
2023-10-10T10:30:16.210Z,96239.72
2023-10-10T10:31:29.420Z,96239.72
2023-10-10T10:32:31.770Z,96241.25
2023-10-10T10:33:36.570Z,96245.56
2023-10-10T10:34:38.857Z,96242.78
2023-10-10T10:36:17.862Z,96245.56
2023-10-10T10:37:22.300Z,96243.34
2023-10-10T10:38:25.586Z,96241.84
2023-10-10T10:39:34.625Z,96244.50
2023-10-10T10:40:43.811Z,96241.16
2023-10-10T10:41:55.059Z,96234.53
2023-10-10T10:43:04.930Z,96245.22
2023-10-10T10:44:14.966Z,96238.38
2023-10-10T10:45:35.001Z,96237.13
2023-10-10T10:46:42.051Z,96236.56
2023-10-10T10:47:55.278Z,96245.38
2023-10-10T10:49:07.488Z,96233.97
2023-10-10T10:50:29.140Z,96236.28
2023-10-10T10:51:42.564Z,96237.03
2023-10-10T10:52:57.520Z,96233.03
2023-10-10T10:54:00.267Z,96236.09
2023-10-10T10:55:21.364Z,96236.09
2023-10-10T10:56:38.965Z,96231.75
2023-10-10T10:57:50.327Z,96236.09
2023-10-10T10:59:14.118Z,96234.84
2023-10-10T11:00:42.233Z,96226.47
2023-10-10T11:01:47.098Z,96234.72
2023-10-10T11:03:02.017Z,96230.13
2023-10-10T11:04:07.576Z,96228.56
2023-10-10T11:05:10.896Z,96223.00
2023-10-10T11:06:15.783Z,96224.56
2023-10-10T11:07:28.828Z,96224.56
2023-10-10T11:08:56.506Z,96223.28
2023-10-10T11:10:09.214Z,96220.50
2023-10-10T11:11:24.697Z,96224.06
2023-10-10T11:12:33.578Z,96223.59
2023-10-10T11:13:36.027Z,96221.09
2023-10-10T11:14:46.171Z,96216.28
2023-10-10T11:15:50.418Z,96224.16
2023-10-10T11:16:57.556Z,96230.00
2023-10-10T11:18:09.319Z,96217.59
2023-10-10T11:19:13.840Z,96213.59
2023-10-10T11:20:36.658Z,96215.09
2023-10-10T11:21:48.462Z,96203.22
2023-10-10T11:22:54.658Z,96206.75
2023-10-10T11:24:00.034Z,96210.31
2023-10-10T11:25:05.956Z,96211.09
2023-10-10T11:26:10.226Z,96211.09
2023-10-10T11:27:15.677Z,96200.72
2023-10-10T11:28:25.979Z,96204.25
2023-10-10T11:29:29.052Z,96202.22
2023-10-10T11:30:35.322Z,96203.00
2023-10-10T11:31:49.050Z,96197.41
2023-10-10T11:33:06.318Z,96194.63
2023-10-10T11:34:12.548Z,96201.47
2023-10-10T11:35:26.766Z,96198.97
2023-10-10T11:36:39.054Z,96200.50
2023-10-10T11:37:45.404Z,96194.44
2023-10-10T11:38:56.834Z,96202.03
2023-10-10T11:40:32.649Z,96194.91
2023-10-10T11:41:36.806Z,96190.16
2023-10-10T11:42:38.808Z,96188.13
2023-10-10T11:44:02.909Z,96188.13
2023-10-10T11:45:06.852Z,96185.34
2023-10-10T11:46:10.421Z,96188.13
2023-10-10T11:47:25.833Z,96189.91
2023-10-10T11:48:30.622Z,96185.91
2023-10-10T11:49:33.538Z,96186.66
2023-10-10T11:50:48.506Z,96174.75
2023-10-10T11:51:50.502Z,96176.56
2023-10-10T11:52:54.784Z,96176.56
2023-10-10T11:53:56.761Z,96175.31
2023-10-10T11:55:01.453Z,96164.16
2023-10-10T11:56:05.967Z,96165.72
2023-10-10T11:57:08.888Z,96167.22
2023-10-10T11:58:17.634Z,96174.34
2023-10-10T11:59:20.719Z,96173.56
2023-10-10T12:00:27.840Z,96170.00
2023-10-10T12:01:52.719Z,96168.00
2023-10-10T12:02:58.715Z,96169.53
2023-10-10T12:04:21.651Z,96174.34
2023-10-10T12:05:42.846Z,96177.13
2023-10-10T12:06:45.765Z,96175.88
2023-10-10T12:07:47.673Z,96170.28
2023-10-10T12:08:51.994Z,96170.28
2023-10-10T12:09:56.537Z,96175.88
2023-10-10T12:11:07.543Z,96175.88
2023-10-10T12:12:11.006Z,96171.06
2023-10-10T12:13:14.062Z,96172.59
2023-10-10T12:14:20.389Z,96159.72
2023-10-10T12:15:23.592Z,96168.06
2023-10-10T12:16:26.307Z,96165.28
2023-10-10T12:17:30.522Z,96164.53
2023-10-10T12:18:34.679Z,96160.97
2023-10-10T12:19:37.729Z,96159.72
2023-10-10T12:20:45.148Z,96158.44
2023-10-10T12:21:47.033Z,96160.47
2023-10-10T12:22:50.045Z,96155.66
2023-10-10T12:23:58.022Z,96157.22
2023-10-10T12:25:05.789Z,96151.66
2023-10-10T12:26:10.163Z,96157.50
2023-10-10T12:27:13.294Z,96156.22
2023-10-10T12:28:19.093Z,96156.22
2023-10-10T12:29:25.681Z,96154.91
2023-10-10T12:30:29.510Z,96153.38
2023-10-10T12:31:35.197Z,96146.28
2023-10-10T12:32:38.661Z,96147.81
2023-10-10T12:33:42.242Z,96152.59
2023-10-10T12:34:46.894Z,96151.09
2023-10-10T12:35:49.319Z,96145.50
2023-10-10T12:37:00.232Z,96146.28
2023-10-10T12:38:02.565Z,96143.47
2023-10-10T12:39:15.815Z,96143.47
2023-10-10T12:40:17.857Z,96145.50
2023-10-10T12:41:22.703Z,96146.78
2023-10-10T12:42:24.741Z,96148.78
2023-10-10T12:43:27.650Z,96143.19
2023-10-10T12:44:29.485Z,96141.22
2023-10-10T12:45:34.202Z,96132.84
2023-10-10T12:46:36.361Z,96139.19
2023-10-10T12:47:39.409Z,96134.38
2023-10-10T12:48:43.055Z,96141.47
2023-10-10T12:49:46.947Z,96136.16
2023-10-10T12:50:51.494Z,96131.88
2023-10-10T12:51:55.107Z,96133.38
2023-10-10T12:53:08.475Z,96130.59
2023-10-10T12:54:14.170Z,96134.94
2023-10-10T12:55:19.743Z,96128.59
2023-10-10T12:56:23.239Z,96130.88
2023-10-10T12:57:27.047Z,96127.81
2023-10-10T12:58:31.286Z,96125.88
2023-10-10T12:59:35.416Z,96126.56
2023-10-10T13:00:37.636Z,96125.03
2023-10-10T13:01:41.435Z,96125.81
2023-10-10T13:02:43.584Z,96126.56
2023-10-10T13:03:49.420Z,96125.13
2023-10-10T13:04:53.572Z,96124.84
2023-10-10T13:06:01.251Z,96129.66
2023-10-10T13:07:06.213Z,96123.28
2023-10-10T13:08:10.365Z,96128.38
2023-10-10T13:09:16.066Z,96124.34
2023-10-10T13:10:19.433Z,96122.81
2023-10-10T13:11:33.659Z,96120.50
2023-10-10T13:12:37.953Z,96122.81
2023-10-10T13:13:46.643Z,96116.00
2023-10-10T13:15:06.084Z,96119.25
2023-10-10T13:16:23.787Z,96122.81
2023-10-10T13:17:33.119Z,96115.22
2023-10-10T13:18:36.627Z,96115.22
2023-10-10T13:19:41.168Z,96108.88
2023-10-10T13:20:44.407Z,96112.56
2023-10-10T13:21:48.596Z,96108.03
2023-10-10T13:22:51.815Z,96111.09
2023-10-10T13:23:58.683Z,96111.09
2023-10-10T13:25:01.404Z,96107.53
2023-10-10T13:26:07.419Z,96120.19
2023-10-10T13:27:09.413Z,96116.66
2023-10-10T13:28:18.403Z,96110.59
2023-10-10T13:29:20.925Z,96112.56
2023-10-10T13:30:24.028Z,96118.19
2023-10-10T13:31:26.073Z,96105.03
2023-10-10T13:32:30.315Z,96114.44
2023-10-10T13:33:32.758Z,96102.81
2023-10-10T13:34:38.256Z,96107.91
2023-10-10T13:35:41.740Z,96105.59
2023-10-10T13:36:44.892Z,96105.22